Metar GG30 METAR message from awiacja.imgw.pl Metar G30 EPRZ METAR EPRZ 040930Z 11006KT 9999 FEW050CB 21/19 Q1007 =